Map

Track Data

SID SEASON NUMBER BASIN SUBBASIN NAME ISO_TIME NATURE LAT LON WMO_WIND WMO_PRES WMO_AGENCY TRACK_TYPE DIST2LAND LANDFALL IFLAG USA_AGENCY USA_ATCF_ID USA_LAT USA_LON USA_RECORD USA_STATUS USA_WIND USA_PRES USA_SSHS USA_R34_NE USA_R34_SE USA_R34_SW USA_R34_NW USA_R50_NE USA_R50_SE USA_R50_SW USA_R50_NW USA_R64_NE USA_R64_SE USA_R64_SW USA_R64_NW USA_POCI USA_ROCI USA_RMW USA_EYE TOKYO_LAT TOKYO_LON TOKYO_GRADE TOKYO_WIND TOKYO_PRES TOKYO_R50_DIR TOKYO_R50_LONG TOKYO_R50_SHORT TOKYO_R30_DIR TOKYO_R30_LONG TOKYO_R30_SHORT TOKYO_LAND CMA_LAT CMA_LON CMA_CAT CMA_WIND CMA_PRES HKO_LAT HKO_LON HKO_CAT HKO_WIND HKO_PRES NEWDELHI_LAT NEWDELHI_LON NEWDELHI_GRADE NEWDELHI_WIND NEWDELHI_PRES NEWDELHI_CI NEWDELHI_DP NEWDELHI_POCI REUNION_LAT REUNION_LON REUNION_TYPE REUNION_WIND REUNION_PRES REUNION_TNUM REUNION_CI REUNION_RMW REUNION_R34_NE REUNION_R34_SE REUNION_R34_SW REUNION_R34_NW REUNION_R50_NE REUNION_R50_SE REUNION_R50_SW REUNION_R50_NW REUNION_R64_NE REUNION_R64_SE REUNION_R64_SW REUNION_R64_NW BOM_LAT BOM_LON BOM_TYPE BOM_WIND BOM_PRES BOM_TNUM BOM_CI BOM_RMW BOM_R34_NE BOM_R34_SE BOM_R34_SW BOM_R34_NW BOM_R50_NE BOM_R50_SE BOM_R50_SW BOM_R50_NW BOM_R64_NE BOM_R64_SE BOM_R64_SW BOM_R64_NW BOM_ROCI BOM_POCI BOM_EYE BOM_POS_METHOD BOM_PRES_METHOD NADI_LAT NADI_LON NADI_CAT NADI_WIND NADI_PRES WELLINGTON_LAT WELLINGTON_LON WELLINGTON_WIND WELLINGTON_PRES DS824_LAT DS824_LON DS824_STAGE DS824_WIND DS824_PRES TD9636_LAT TD9636_LON TD9636_STAGE TD9636_WIND TD9636_PRES TD9635_LAT TD9635_LON TD9635_WIND TD9635_PRES TD9635_ROCI NEUMANN_LAT NEUMANN_LON NEUMANN_CLASS NEUMANN_WIND NEUMANN_PRES MLC_LAT MLC_LON MLC_CLASS MLC_WIND MLC_PRES USA_GUST BOM_GUST BOM_GUST_PER REUNION_GUST REUNION_GUST_PER USA_SEAHGT USA_SEARAD_NE USA_SEARAD_SE USA_SEARAD_SW USA_SEARAD_NW STORM_SPEED STORM_DIR
1851228N13313 1851 10 NA NA NOT_NAMED 1851-08-16 00:00:00 TS 13.3667 -47.2000 40 hurdat_atl main 1093 1057 O____________O hurdat_atl AL041851 13.4000 -48.0000 TS 40 0 13.3000 -45.6000 TS 40 16 282
1851228N13313 1851 10 NA NA NOT_NAMED 1851-08-16 03:00:00 TS 13.5356 -48.0047 main 1057 1038 P____________P AL041851 13.5531 -48.7572 TS 40 0 13.5006 -46.4997 TS 40 16 282
1851228N13313 1851 10 NA NA NOT_NAMED 1851-08-16 06:00:00 TS 13.7000 -48.8000 40 hurdat_atl main 1038 1018 O____________O hurdat_atl AL041851 13.7000 -49.5000 TS 40 0 13.7000 -47.4000 TS 40 16 282
1851228N13313 1851 10 NA NA NOT_NAMED 1851-08-16 09:00:00 TS 13.8613 -49.5852 main 1025 998 P____________P AL041851 13.8421 -50.2277 TS 45 0 13.8997 -48.3002 TS 45 16 282
1851228N13313 1851 10 NA NA NOT_NAMED 1851-08-16 12:00:00 TS 14.0333 -50.4000 50 hurdat_atl main 998 985 O____________O hurdat_atl AL041851 14.0000 -51.0000 TS 50 0 14.1000 -49.2000 TS 50 17 282
1851228N13313 1851 10 NA NA NOT_NAMED 1851-08-16 15:00:00 TS 14.2232 -51.2851 main 982 976 P____________P AL041851 14.1849 -51.8776 TS 50 0 14.2997 -50.1002 TS 50 18 283
1851228N13313 1851 10 NA NA NOT_NAMED 1851-08-16 18:00:00 TS 14.4333 -52.2000 50 hurdat_atl main 976 971 O____________O hurdat_atl AL041851 14.4000 -52.8000 TS 50 0 14.5000 -51.0000 TS 50 18 284
1851228N13313 1851 10 NA NA NOT_NAMED 1851-08-16 21:00:00 TS 14.6613 -53.0952 main 967 902 P____________P AL041851 14.6421 -53.6926 TS 55 0 14.6997 -51.9002 TS 55 18 285
1851228N13313 1851 10 NA NA NOT_NAMED 1851-08-17 00:00:00 TS 14.9000 -54.0000 60 hurdat_atl main 893 824 O____________O hurdat_atl AL041851 14.9000 -54.6000 TS 60 0 14.9000 -52.8000 TS 60 18 285
1851228N13313 1851 10 NA NA NOT_NAMED 1851-08-17 03:00:00 TS 15.1329 -54.9235 main 824 763 P____________P AL041851 15.1496 -55.5352 TS 60 0 15.0996 -53.7002 TS 60 19 285
1851228N13313 1851 10 NA NA NOT_NAMED 1851-08-17 06:00:00 TS 15.3667 -55.8667 60 hurdat_atl main 763 712 O____________O hurdat_atl AL041851 15.4000 -56.5000 TS 60 0 15.3000 -54.6000 TS 60 19 285
1851228N13313 1851 10 NA NA NOT_NAMED 1851-08-17 09:00:00 TS 15.6147 -56.8333 main 712 673 P____________P AL041851 15.6722 -57.4999 TS 65 1 15.4996 -55.5002 TS 60 19 284
1851228N13313 1851 10 NA NA NOT_NAMED 1851-08-17 12:00:00 TS 15.8333 -57.8000 70 hurdat_atl main 667 637 O____________O hurdat_atl AL041851 15.9000 -58.5000 HU 70 1 15.7000 -56.4000 TS 60 19 281
1851228N13313 1851 10 NA NA NOT_NAMED 1851-08-17 15:00:00 TS 15.9661 -58.7289 main 643 621 P____________P AL041851 15.9993 -59.4433 HU 70 1 15.8996 -57.3002 TS 62 18 278
1851228N13313 1851 10 NA NA NOT_NAMED 1851-08-17 18:00:00 TS 16.1000 -59.6667 70 hurdat_atl main 620 572 O____________O hurdat_atl AL041851 16.1000 -60.4000 HU 70 1 16.1000 -58.2000 HU 65 19 281
1851228N13313 1851 10 NA CS NOT_NAMED 1851-08-17 21:00:00 TS 16.3283 -60.6814 main 562 460 P____________P AL041851 16.3427 -61.4720 HU 75 1 16.2996 -59.1002 HU 65 20 284
1851228N13313 1851 10 NA CS NOT_NAMED 1851-08-18 00:00:00 TS 16.5667 -61.6667 80 hurdat_atl main 450 369 O____________O hurdat_atl AL041851 16.6000 -62.5000 HU 80 1 16.5000 -60.0000 HU 65 18 283
1851228N13313 1851 10 NA CS NOT_NAMED 1851-08-18 03:00:00 TS 16.7425 -62.5104 main 369 283 P____________P AL041851 16.7639 -63.3155 HU 80 1 16.6996 -60.9002 HU 65 16 282
1851228N13313 1851 10 NA CS NOT_NAMED 1851-08-18 06:00:00 TS 16.9000 -63.3333 80 hurdat_atl main 283 192 O____________O hurdat_atl AL041851 16.9000 -64.1000 HU 80 1 16.9000 -61.8000 HU 65 17 281
1851228N13313 1851 10 NA CS NOT_NAMED 1851-08-18 09:00:00 TS 17.0666 -64.2668 main 184 116 P____________P AL041851 17.0427 -65.0501 HU 85 2 17.1146 -62.7000 HU 67 18 281
1851228N13313 1851 10 NA CS NOT_NAMED 1851-08-18 12:00:00 TS 17.2333 -65.2000 90 hurdat_atl main 109 59 O____________O hurdat_atl AL041851 17.2000 -66.0000 HU 90 2 17.3000 -63.6000 HU 70 17 281
1851228N13313 1851 10 NA CS NOT_NAMED 1851-08-18 15:00:00 TS 17.3921 -66.0561 main 56 35 P____________P AL041851 17.3918 -66.8151 HU 90 2 17.3925 -64.5380 HU 72 16 282
1851228N13313 1851 10 NA CS NOT_NAMED 1851-08-18 18:00:00 TS 17.5667 -66.8667 90 hurdat_atl main 33 22 O____________O hurdat_atl AL041851 17.6000 -67.6000 HU 90 2 17.5000 -65.4000 HU 75 16 284
1851228N13313 1851 10 NA CS NOT_NAMED 1851-08-18 21:00:00 TS 17.7677 -67.6378 main 43 30 P____________P AL041851 17.7996 -68.4352 HU 90 2 17.7039 -66.0431 HU 77 16 286
1851228N13313 1851 10 NA CS NOT_NAMED 1851-08-19 00:00:00 TS 18.0000 -68.4333 90 hurdat_atl main 30 11 O____________O hurdat_atl AL041851 18.0000 -69.3000 HU 90 2 18.0000 -66.7000 HU 80 17 287
1851228N13313 1851 10 NA CS NOT_NAMED 1851-08-19 03:00:00 TS 18.2517 -69.3451 main 22 0 P____________P AL041851 18.1925 -70.2152 HU 80 1 18.3701 -67.6050 HU 82 18 287
1851228N13313 1851 10 NA NA NOT_NAMED 1851-08-19 06:00:00 TS 18.5333 -70.2667 70 hurdat_atl main 0 0 O____________O hurdat_atl AL041851 18.4000 -71.1000 HU 70 1 18.8000 -68.6000 HU 85 18 290
1851228N13313 1851 10 NA NA NOT_NAMED 1851-08-19 09:00:00 TS 18.8541 -71.0760 main 0 0 P____________P AL041851 18.6417 -71.8578 HU 65 1 19.2789 -69.5125 HU 82 17 292
1851228N13313 1851 10 NA NA NOT_NAMED 1851-08-19 12:00:00 TS 19.1667 -71.9000 60 hurdat_atl main 0 0 O____________O hurdat_atl AL041851 18.9000 -72.6000 TS 60 0 19.7000 -70.5000 HU 80 18 288
1851228N13313 1851 10 NA CS NOT_NAMED 1851-08-19 15:00:00 TS 19.4153 -72.8744 main 15 10 P____________P AL041851 19.1499 -73.4427 TS 60 0 19.9462 -71.7379 HU 72 19 284
1851228N13313 1851 10 NA CS NOT_NAMED 1851-08-19 18:00:00 TS 19.6333 -73.8333 60 hurdat_atl main 33 30 O____________O hurdat_atl AL041851 19.4000 -74.3000 TS 60 0 20.1000 -72.9000 HU 65 17 284
1851228N13313 1851 10 NA CS NOT_NAMED 1851-08-19 21:00:00 TS 19.8391 -74.6230 main 30 0 P____________P AL041851 19.6419 -75.1004 TS 65 1 20.2335 -73.6683 HU 62 15 287
1851228N13313 1851 10 NA NA NOT_NAMED 1851-08-20 00:00:00 TS 20.0667 -75.3667 70 hurdat_atl main 0 0 O____________O hurdat_atl AL041851 19.9000 -75.9000 HU 70 1 20.4000 -74.3000 TS 60 16 289
1851228N13313 1851 10 NA NA NOT_NAMED 1851-08-20 03:00:00 TS 20.3491 -76.1934 main 0 0 P____________P AL041851 20.1850 -76.7651 HU 70 1 20.6774 -75.0499 TS 55 16 291
1851228N13313 1851 10 NA NA NOT_NAMED 1851-08-20 06:00:00 TS 20.6667 -77.0000 70 hurdat_atl main 0 0 O____________O hurdat_atl AL041851 20.5000 -77.6000 HU 70 1 21.0000 -75.8000 TS 50 16 294
1851228N13313 1851 10 NA NA NOT_NAMED 1851-08-20 09:00:00 TS 20.9945 -77.7178 main 0 0 P____________P AL041851 20.8419 -78.3228 HU 70 1 21.2996 -76.5078 TS 47 15 297
1851228N13313 1851 10 NA NA NOT_NAMED 1851-08-20 12:00:00 TS 21.3333 -78.4000 70 hurdat_atl main 0 0 O____________O hurdat_atl AL041851 21.2000 -79.0000 HU 70 1 21.6000 -77.2000 TS 45 15 297
1851228N13313 1851 10 NA NA NOT_NAMED 1851-08-20 15:00:00 TS 21.6666 -79.1202 main 0 0 P____________P AL041851 21.5500 -79.7301 HU 70 1 21.8997 -77.9003 TS 42 15 297
1851228N13313 1851 10 NA NA NOT_NAMED 1851-08-20 18:00:00 TS 22.0000 -79.8000 70 hurdat_atl main 0 0 O____________O hurdat_atl AL041851 21.9000 -80.4000 HU 70 1 22.2000 -78.6000 TS 40 14 300
1851228N13313 1851 10 NA NA NOT_NAMED 1851-08-20 21:00:00 TS 22.3404 -80.3820 main 0 0 P____________P AL041851 22.2570 -80.9229 HU 65 1 22.5072 -79.3002 TS 40 12 302
1851228N13313 1851 10 NA NA NOT_NAMED 1851-08-21 00:00:00 TS 22.6667 -80.9333 60 hurdat_atl main 0 0 O____________O hurdat_atl AL041851 22.6000 -81.4000 TS 60 0 22.8000 -80.0000 TS 40 12 300
1851228N13313 1851 10 NA NA NOT_NAMED 1851-08-21 03:00:00 TS 22.9498 -81.5287 main 0 0 P____________P AL041851 22.8999 -81.9429 TS 60 0 23.0497 -80.7005 TS 45 12 297
1851228N13313 1851 10 NA NA NOT_NAMED 1851-08-21 06:00:00 TS 23.2333 -82.1333 60 hurdat_atl main 11 11 O____________O hurdat_atl AL041851 23.2000 -82.5000 TS 60 0 23.3000 -81.4000 TS 50 13 299
1851228N13313 1851 10 NA NA NOT_NAMED 1851-08-21 09:00:00 TS 23.5716 -82.7532 main 63 63 P____________P AL041851 23.5576 -83.0798 TS 65 1 23.5997 -82.1001 TS 57 13 301
1851228N13313 1851 10 NA GM NOT_NAMED 1851-08-21 12:00:00 TS 23.9000 -83.3333 70 hurdat_atl main 111 111 O____________O hurdat_atl AL041851 23.9000 -83.6000 HU 70 1 23.9000 -82.8000 HU 65 11 301
1851228N13313 1851 10 NA GM NOT_NAMED 1851-08-21 15:00:00 TS 24.1547 -83.8280 main 150 150 P____________P AL041851 24.1572 -83.9880 HU 70 1 24.1498 -83.5080 HU 67 10 300
1851228N13313 1851 10 NA GM NOT_NAMED 1851-08-21 18:00:00 TS 24.4000 -84.2667 70 hurdat_atl main 188 188 O____________O hurdat_atl AL041851 24.4000 -84.3000 HU 70 1 24.4000 -84.2000 HU 70 10 304
1851228N13313 1851 10 NA GM NOT_NAMED 1851-08-21 21:00:00 TS 24.6925 -84.7133 main 234 234 P____________P AL041851 24.6924 -84.6076 HU 75 1 24.6928 -84.9247 HU 72 10 308
1851228N13313 1851 10 NA GM NOT_NAMED 1851-08-22 00:00:00 TS 25.0000 -85.1000 80 hurdat_atl main 280 280 O____________O hurdat_atl AL041851 25.0000 -84.9000 HU 80 1 25.0000 -85.5000 HU 75 9 314
1851228N13313 1851 10 NA GM NOT_NAMED 1851-08-22 03:00:00 TS 25.2973 -85.3969 main 323 323 P____________P AL041851 25.3000 -85.2076 HU 80 1 25.2920 -85.7755 HU 77 8 321
1851228N13313 1851 10 NA GM NOT_NAMED 1851-08-22 06:00:00 TS 25.6000 -85.6333 80 hurdat_atl main 353 353 O____________O hurdat_atl AL041851 25.6000 -85.5000 HU 80 1 25.6000 -85.9000 HU 80 8 325
1851228N13313 1851 10 NA GM NOT_NAMED 1851-08-22 09:00:00 TS 25.9167 -85.8725 main 363 358 P____________P AL041851 25.9000 -85.7726 HU 85 2 25.9500 -86.0725 HU 82 7 328
1851228N13313 1851 10 NA GM NOT_NAMED 1851-08-22 12:00:00 TS 26.2333 -86.0667 90 hurdat_atl main 368 357 O____________O hurdat_atl AL041851 26.2000 -86.0000 HU 90 2 26.3000 -86.2000 HU 85 7 334
1851228N13313 1851 10 NA GM NOT_NAMED 1851-08-22 15:00:00 TS 26.5358 -86.2060 main 361 335 P____________P AL041851 26.4999 -86.1726 HU 90 2 26.6075 -86.2726 HU 87 6 341
1851228N13313 1851 10 NA GM NOT_NAMED 1851-08-22 18:00:00 TS 26.8333 -86.3000 90 hurdat_atl main 335 306 O____________O hurdat_atl AL041851 26.8000 -86.3000 HU 90 2 26.9000 -86.3000 HU 90 6 346
1851228N13313 1851 10 NA GM NOT_NAMED 1851-08-22 21:00:00 TS 27.1333 -86.3792 main 306 274 P____________P AL041851 27.1000 -86.4151 HU 95 2 27.2000 -86.3076 HU 92 6 349
1851228N13313 1851 10 NA GM NOT_NAMED 1851-08-23 00:00:00 TS 27.4333 -86.4333 100 hurdat_atl main 274 247 O____________O hurdat_atl AL041851 27.4000 -86.5000 HU 100 3 27.5000 -86.3000 HU 95 6 352
1851228N13313 1851 10 NA GM NOT_NAMED 1851-08-23 03:00:00 TS 27.7383 -86.4792 main 247 217 P____________P AL041851 27.7075 -86.5650 HU 100 3 27.8000 -86.3074 HU 97 6 355
1851228N13313 1851 10 NA GM NOT_NAMED 1851-08-23 06:00:00 TS 28.0333 -86.5000 100 hurdat_atl main 217 189 O____________O hurdat_atl AL041851 28.0000 -86.6000 HU 100 3 28.1000 -86.3000 MH 100 5 356
1851228N13313 1851 10 NA GM NOT_NAMED 1851-08-23 09:00:00 TS 28.2749 -86.5230 main 189 171 P____________P AL041851 28.2124 -86.6446 HU 100 3 28.4000 -86.2798 MH 100 5 5
1851228N13313 1851 10 NA GM NOT_NAMED 1851-08-23 12:00:00 TS 28.5667 -86.4667 100 hurdat_atl main 162 117 O____________O hurdat_atl AL041851 28.5000 -86.6000 HU 100 3 28.7000 -86.2000 MH 100 8 16
1851228N13313 1851 10 NA GM NOT_NAMED 1851-08-23 15:00:00 TS 29.0129 -86.2841 main 117 62 P____________P AL041851 29.0193 -86.4149 HU 100 3 29.0000 -86.0226 MH 100 10 24
1851228N13313 1851 10 NA GM NOT_NAMED 1851-08-23 18:00:00 TS 29.5000 -86.0000 100 hurdat_atl main 62 22 O____________O hurdat_atl AL041851 29.6000 -86.1000 HU 100 3 29.3000 -85.8000 MH 100 11 30
1851228N13313 1851 10 NA GM NOT_NAMED 1851-08-23 21:00:00 TS 29.9333 -85.6666 100 hurdat_atl main 22 0 O____________P hurdat_atl AL041851 30.1000 -85.7000 L HU 100 3 29.6000 -85.5999 MH 92 12 37
1851228N13313 1851 10 NA NA NOT_NAMED 1851-08-24 00:00:00 TS 30.4333 -85.2000 90 hurdat_atl main 0 0 O____________O hurdat_atl AL041851 30.7000 -85.1000 HU 90 2 29.9000 -85.4000 HU 85 12 40
1851228N13313 1851 10 NA NA NOT_NAMED 1851-08-24 03:00:00 TS 30.8485 -84.7902 main 0 0 P____________P AL041851 31.1803 -84.5853 HU 80 1 30.1850 -85.1998 HU 75 11 41
1851228N13313 1851 10 NA NA NOT_NAMED 1851-08-24 06:00:00 TS 31.2333 -84.4000 70 hurdat_atl main 0 0 O____________O hurdat_atl AL041851 31.6000 -84.1000 HU 70 1 30.5000 -85.0000 HU 65 10 39
1851228N13313 1851 10 NA NA NOT_NAMED 1851-08-24 09:00:00 TS 31.6535 -84.0180 main 0 0 P____________P AL041851 32.0493 -83.5940 HU 65 1 30.8619 -84.8662 HU 60 11 40
1851228N13313 1851 10 NA NA NOT_NAMED 1851-08-24 12:00:00 TS 32.1000 -83.5333 60 hurdat_atl main 0 0 O____________O hurdat_atl AL041851 32.5000 -83.0000 TS 60 0 31.3000 -84.6000 TS 55 14 47
1851228N13313 1851 10 NA NA NOT_NAMED 1851-08-24 15:00:00 TS 32.5863 -82.8213 main 0 0 P____________P AL041851 32.9729 -82.2231 TS 55 0 31.8130 -84.0178 TS 50 16 53
1851228N13313 1851 10 NA NA NOT_NAMED 1851-08-24 18:00:00 TS 33.0667 -82.0333 50 hurdat_atl main 0 0 O____________O hurdat_atl AL041851 33.4000 -81.4000 TS 50 0 32.4000 -83.3000 TS 45 15 54
1851228N13313 1851 10 NA NA NOT_NAMED 1851-08-24 21:00:00 TS 33.4873 -81.3609 main 0 0 P____________P AL041851 33.7068 -80.6834 TS 45 0 33.0484 -82.7158 TS 42 14 54
1851228N13313 1851 10 NA NA NOT_NAMED 1851-08-25 00:00:00 TS 33.9000 -80.6667 40 hurdat_atl main 0 0 O____________O hurdat_atl AL041851 34.0000 -80.0000 TS 40 0 33.7000 -82.0000 TS 40 15 56
1851228N13313 1851 10 NA NA NOT_NAMED 1851-08-25 03:00:00 TS 34.3373 -79.8626 main 0 0 P____________P AL041851 34.3693 -79.3140 TS 40 0 34.2733 -80.9598 TS 40 16 57
1851228N13313 1851 10 NA NA NOT_NAMED 1851-08-25 06:00:00 TS 34.8000 -79.0000 40 hurdat_atl main 0 0 O____________O hurdat_atl AL041851 34.8000 -78.6000 TS 40 0 34.8000 -79.8000 TS 40 17 56
1851228N13313 1851 10 NA NA NOT_NAMED 1851-08-25 09:00:00 TS 35.2916 -78.1405 main 0 0 P____________P AL041851 35.2843 -77.8367 TS 40 0 35.3062 -78.7481 TS 40 18 55
1851228N13313 1851 10 NA NA NOT_NAMED 1851-08-25 12:00:00 TS 35.8000 -77.2333 40 hurdat_atl main 0 0 O____________O hurdat_atl AL041851 35.8000 -77.0000 TS 40 0 35.8000 -77.7000 TS 40 18 57
1851228N13313 1851 10 NA NA NOT_NAMED 1851-08-25 15:00:00 TS 36.2999 -76.2327 main 0 0 P____________P AL041851 36.3004 -76.0423 TS 40 0 36.2990 -76.6136 TS 40 19 58
1851228N13313 1851 10 NA NA NOT_NAMED 1851-08-25 18:00:00 TS 36.8000 -75.2333 40 hurdat_atl main 66 66 O____________O hurdat_atl AL041851 36.8000 -75.1000 TS 40 0 36.8000 -75.5000 TS 40 18 57
1851228N13313 1851 10 NA NA NOT_NAMED 1851-08-25 21:00:00 TS 37.2935 -74.3504 main 111 111 P____________P AL041851 37.2910 -74.3402 TS 40 0 37.2987 -74.3708 TS 40 17 55
1851228N13313 1851 10 NA NA NOT_NAMED 1851-08-26 00:00:00 TS 37.8000 -73.4667 40 hurdat_atl main 150 150 O____________O hurdat_atl AL041851 37.8000 -73.6000 TS 40 0 37.8000 -73.2000 TS 40 18 55
1851228N13313 1851 10 NA NA NOT_NAMED 1851-08-26 03:00:00 TS 38.3278 -72.4740 main 204 204 P____________P AL041851 38.3423 -72.7219 TS 40 0 38.2987 -71.9782 TS 40 19 56
1851228N13313 1851 10 NA NA NOT_NAMED 1851-08-26 06:00:00 TS 38.8667 -71.4333 40 hurdat_atl main 234 228 O____________O hurdat_atl AL041851 38.9000 -71.8000 TS 40 0 38.8000 -70.7000 TS 40 19 56
1851228N13313 1851 10 NA NA NOT_NAMED 1851-08-26 09:00:00 TS 39.3738 -70.4778 main 234 203 P____________P AL041851 39.4313 -70.9999 TS 40 0 39.2587 -69.4337 TS 52 19 57
1851228N13313 1851 10 NA NA NOT_NAMED 1851-08-26 12:00:00 TS 39.9333 -69.3333 40 hurdat_atl main 208 194 O____________O hurdat_atl AL041851 40.0000 -70.0000 TS 40 0 39.8000 -68.0000 HU 65 24 60
1851228N13313 1851 10 NA NA NOT_NAMED 1851-08-26 15:00:00 TS 40.5824 -67.7565 main 220 220 P____________P AL041851 40.6207 -68.5259 TS 40 0 40.5059 -66.2176 HU 65 29 62
1851228N13313 1851 10 NA NA NOT_NAMED 1851-08-26 18:00:00 TS 41.3000 -65.9667 40 hurdat_atl main 245 182 O____________O hurdat_atl AL041851 41.3000 -66.8000 TS 40 0 41.3000 -64.3000 HU 65 31 62
1851228N13313 1851 10 NA NA NOT_NAMED 1851-08-26 21:00:00 TS 42.0444 -64.1537 main 189 183 P____________P AL041851 42.0197 -65.0402 TS 40 0 42.0937 -62.3806 HU 67 30 60
1851228N13313 1851 10 NA NA NOT_NAMED 1851-08-27 00:00:00 TS 42.8333 -62.4333 40 hurdat_atl main 202 168 O____________O hurdat_atl AL041851 42.8000 -63.3000 TS 40 0 42.9000 -60.7000 HU 70 28 55
1851228N13313 1851 10 NA NA NOT_NAMED 1851-08-27 03:00:00 TS 43.6455 -60.9820 main 171 129 P____________P AL041851 43.6170 -61.7074 TS 40 0 43.7025 -59.5310 HU 70 26 50
1851228N13313 1851 10 NA NA NOT_NAMED 1851-08-27 06:00:00 TS 44.5000 -59.6667 40 hurdat_atl main 133 126 O____________O hurdat_atl AL041851 44.5000 -60.2000 TS 40 0 44.5000 -58.6000 HU 70 25 48
1851228N13313 1851 10 NA NA NOT_NAMED 1851-08-27 09:00:00 TS 45.3380 -58.3384 main 150 116 P____________P AL041851 45.4178 -58.6871 TS 40 0 45.1783 -57.6410 HU 70 26 48
1851228N13313 1851 10 NA NA NOT_NAMED 1851-08-27 12:00:00 TS 46.2400 -56.9200 40 hurdat_atl main 112 0 O____________O hurdat_atl AL041851 46.4000 -57.2000 TS 40 0 46.0000 -56.5000 HU 70 29 47
1851228N13313 1851 10 NA NA NOT_NAMED 1851-08-27 15:00:00 TS 47.3080 -55.2870 main 0 0 P____________P AL041851 47.4389 -55.7153 TS 40 0 47.1770 -54.8587 HU 70 33 47
1851228N13313 1851 10 NA NA NOT_NAMED 1851-08-27 18:00:00 TS 48.5000 -53.4000 40 hurdat_atl main 0 0 O____________O hurdat_atl AL041851 48.5000 -54.2000 TS 40 0 48.5000 -53.0000 HU 70 36 49
1851228N13313 1851 10 NA NA NOT_NAMED 1851-08-27 21:00:00 TS 49.6728 -51.2326 main 171 171 _____________P AL041851 TS -1 49.6728 -51.2326 HU 65 35 45
1851228N13313 1851 10 NA NA NOT_NAMED 1851-08-28 00:00:00 ET 51.0000 -49.5000 main 340 340 _____________O 51.0000 -49.5000 EX 60 37 36
1851228N13313 1851 10 NA NA NOT_NAMED 1851-08-28 03:00:00 ET 52.6548 -47.7865 main 525 525 _____________P 52.6548 -47.7865 EX 60 41 31
1851228N13313 1851 10 NA NA NOT_NAMED 1851-08-28 06:00:00 ET 54.5000 -46.0000 main 613 _____________O 54.5000 -46.0000 EX 60 42 29

About IBTrACS Database

This database is a web-friendly format of International Best Track Archive for Climate Stewardship (IBTrACS), a global best track data archive curated by NOAA dating back to 1842.

Updated: 2021-12-06